Time;durP1;ratioP1;P1;durP2;ratioP2;P2;SDS_P1;SDS_P2;PMS_P1;PMS_P2;Temp;Humidity;BMP_temperature;BMP_pressure;BME280_temperature;BME280_humidity;BME280_pressure;Samples;Min_cycle;Max_cycle;Signal;HPM_P1;HPM_P2
2023/09/09 00:01:58;;;;;;;12.05;7.95;;;;;;;;;;5014499;28;20106;-69
2023/09/09 00:04:43;;;;;;;14.30;8.80;;;;;;;;;;5012472;28;20473;-70
2023/09/09 00:07:29;;;;;;;12.90;9.13;;;;;;;;;;5042929;28;20041;-70
2023/09/09 00:10:14;;;;;;;13.30;9.07;;;;;;;;;;5014315;28;20083;-65
2023/09/09 00:12:59;;;;;;;13.65;9.20;;;;;;;;;;5000995;28;20025;-73
2023/09/09 00:15:44;;;;;;;12.65;7.90;;;;;;;;;;5043039;28;20116;-72
2023/09/09 00:18:30;;;;;;;11.82;8.80;;;;;;;;;;5029383;28;20033;-71
2023/09/09 00:21:15;;;;;;;11.38;8.10;;;;;;;;;;5042645;28;20044;-71
2023/09/09 00:24:00;;;;;;;10.50;7.38;;;;;;;;;;5005590;28;20025;-69
2023/09/09 00:26:45;;;;;;;11.07;8.05;;;;;;;;;;5013787;28;20057;-72
2023/09/09 00:29:30;;;;;;;12.20;7.85;;;;;;;;;;5028829;28;20107;-67
2023/09/09 00:32:16;;;;;;;11.50;7.97;;;;;;;;;;5037407;28;20472;-74
2023/09/09 00:35:01;;;;;;;10.75;7.50;;;;;;;;;;5014081;28;20068;-74
2023/09/09 00:37:46;;;;;;;11.63;8.15;;;;;;;;;;5013846;28;20046;-72
2023/09/09 00:40:32;;;;;;;11.10;7.38;;;;;;;;;;4999877;28;20026;-73
2023/09/09 00:43:17;;;;;;;11.95;7.53;;;;;;;;;;5014947;28;20034;-72
2023/09/09 00:46:02;;;;;;;11.88;7.93;;;;;;;;;;5042566;28;20041;-71
2023/09/09 00:48:47;;;;;;;10.75;7.60;;;;;;;;;;5003198;28;20585;-65
2023/09/09 00:51:34;;;;;;;15.07;8.18;;;;;;;;;;5014146;28;20041;-67
2023/09/09 00:54:19;;;;;;;12.52;8.23;;;;;;;;;;5014510;28;20388;-67
2023/09/09 00:57:04;;;;;;;10.85;7.10;;;;;;;;;;5013949;28;20059;-66
2023/09/09 00:59:50;;;;;;;11.75;7.95;;;;;;;;;;5025404;28;20052;-67
2023/09/09 01:02:39;;;;;;;10.60;7.18;;;;;;;;;;5012473;28;20044;-67
2023/09/09 01:05:24;;;;;;;12.57;7.53;;;;;;;;;;5013874;28;20087;-73
2023/09/09 01:08:10;;;;;;;12.48;8.02;;;;;;;;;;5012477;28;20052;-71
2023/09/09 01:10:56;;;;;;;11.88;7.40;;;;;;;;;;5013461;28;20032;-70
2023/09/09 01:13:41;;;;;;;11.27;7.40;;;;;;;;;;5041729;28;21455;-71
2023/09/09 01:16:26;;;;;;;11.32;8.13;;;;;;;;;;5042089;28;20029;-69
2023/09/09 01:19:12;;;;;;;10.48;7.35;;;;;;;;;;5012719;28;20044;-71
2023/09/09 01:22:03;;;;;;;11.70;7.50;;;;;;;;;;4997830;28;20512;-70
2023/09/09 01:24:48;;;;;;;9.90;7.25;;;;;;;;;;5009224;28;20032;-71
2023/09/09 01:27:33;;;;;;;10.85;8.38;;;;;;;;;;5012426;28;20424;-72
2023/09/09 01:30:18;;;;;;;10.70;7.80;;;;;;;;;;5041852;28;20057;-72
2023/09/09 01:33:03;;;;;;;17.95;7.47;;;;;;;;;;5045156;28;20104;-73
2023/09/09 01:35:49;;;;;;;13.27;7.20;;;;;;;;;;5028947;28;20034;-73
2023/09/09 01:38:34;;;;;;;14.25;7.43;;;;;;;;;;5017780;28;20037;-73
2023/09/09 01:41:19;;;;;;;11.15;7.28;;;;;;;;;;5044347;28;20044;-73
2023/09/09 01:44:04;;;;;;;12.30;7.88;;;;;;;;;;5045974;28;20495;-68
2023/09/09 01:46:50;;;;;;;12.07;8.02;;;;;;;;;;5040068;28;20029;-67
2023/09/09 01:49:35;;;;;;;9.93;7.45;;;;;;;;;;5037058;28;20033;-67
2023/09/09 01:52:20;;;;;;;11.38;6.95;;;;;;;;;;5018455;28;20033;-67
2023/09/09 01:55:05;;;;;;;10.40;7.13;;;;;;;;;;5016097;28;20033;-66
2023/09/09 01:57:51;;;;;;;9.50;6.80;;;;;;;;;;5037828;28;20117;-66
2023/09/09 02:00:36;;;;;;;12.05;7.68;;;;;;;;;;5045369;28;20501;-72
2023/09/09 02:03:21;;;;;;;11.13;7.07;;;;;;;;;;5041108;28;20440;-73
2023/09/09 02:06:07;;;;;;;10.98;7.35;;;;;;;;;;5034653;28;20036;-74
2023/09/09 02:08:52;;;;;;;10.27;6.82;;;;;;;;;;5017483;28;20065;-74
2023/09/09 02:11:37;;;;;;;9.02;7.13;;;;;;;;;;5041167;28;20553;-73
2023/09/09 02:14:23;;;;;;;10.70;7.63;;;;;;;;;;5017426;28;20497;-72
2023/09/09 02:17:08;;;;;;;8.85;6.53;;;;;;;;;;5042048;28;20029;-71
2023/09/09 02:19:57;;;;;;;9.98;7.38;;;;;;;;;;5004765;28;20484;-75
2023/09/09 02:22:42;;;;;;;9.68;6.50;;;;;;;;;;5017258;28;20625;-69
2023/09/09 02:25:27;;;;;;;11.55;7.75;;;;;;;;;;5040317;28;20045;-68
2023/09/09 02:28:13;;;;;;;11.82;6.72;;;;;;;;;;5030057;28;20095;-69
2023/09/09 02:30:59;;;;;;;11.50;7.25;;;;;;;;;;5017054;28;20052;-68
2023/09/09 02:33:45;;;;;;;8.85;6.70;;;;;;;;;;5039419;28;20429;-70
2023/09/09 02:36:30;;;;;;;10.18;7.55;;;;;;;;;;5002901;28;20034;-73
2023/09/09 02:39:15;;;;;;;10.15;7.65;;;;;;;;;;5009454;28;20072;-73
2023/09/09 02:42:00;;;;;;;11.65;7.93;;;;;;;;;;5044019;28;20522;-73
2023/09/09 02:44:46;;;;;;;9.63;7.13;;;;;;;;;;5015945;28;20037;-73
2023/09/09 02:47:31;;;;;;;8.52;6.55;;;;;;;;;;5030956;28;20034;-71
2023/09/09 02:50:17;;;;;;;12.52;6.95;;;;;;;;;;5031687;28;20029;-72
2023/09/09 02:53:02;;;;;;;10.68;7.95;;;;;;;;;;5017072;28;20289;-72
2023/09/09 02:55:47;;;;;;;10.93;7.10;;;;;;;;;;5005902;28;20026;-73
2023/09/09 02:58:33;;;;;;;12.43;8.35;;;;;;;;;;5006625;28;20036;-72
2023/09/09 03:01:18;;;;;;;10.65;7.30;;;;;;;;;;5016773;28;20026;-71
2023/09/09 03:04:03;;;;;;;14.02;7.93;;;;;;;;;;5041420;28;20034;-73
2023/09/09 03:06:48;;;;;;;11.35;8.30;;;;;;;;;;5016346;28;20088;-74
2023/09/09 03:09:35;;;;;;;10.50;7.47;;;;;;;;;;5016487;28;20369;-74
2023/09/09 03:12:21;;;;;;;9.70;6.75;;;;;;;;;;5032559;28;20124;-72
2023/09/09 03:15:06;;;;;;;10.80;7.88;;;;;;;;;;5041751;28;20120;-66
2023/09/09 03:17:51;;;;;;;10.57;7.90;;;;;;;;;;5016219;28;20037;-71
2023/09/09 03:20:36;;;;;;;12.00;7.57;;;;;;;;;;5040396;28;20025;-74
2023/09/09 03:23:22;;;;;;;11.20;7.75;;;;;;;;;;5035049;28;20065;-72
2023/09/09 03:26:08;;;;;;;10.07;7.40;;;;;;;;;;5015560;28;20099;-72
2023/09/09 03:28:53;;;;;;;10.02;7.22;;;;;;;;;;5038683;28;20096;-71
2023/09/09 03:31:38;;;;;;;15.40;7.93;;;;;;;;;;5041686;28;20029;-72
2023/09/09 03:34:24;;;;;;;9.68;7.82;;;;;;;;;;5024968;28;20190;-72
2023/09/09 03:37:09;;;;;;;8.88;6.88;;;;;;;;;;5043584;28;20087;-72
2023/09/09 03:39:54;;;;;;;9.73;6.70;;;;;;;;;;5028048;28;20033;-72
2023/09/09 03:42:40;;;;;;;10.05;7.72;;;;;;;;;;5042169;28;20036;-73
2023/09/09 03:45:25;;;;;;;11.77;7.93;;;;;;;;;;4990083;28;20048;-72
2023/09/09 03:48:10;;;;;;;11.57;8.05;;;;;;;;;;5015694;28;20034;-72
2023/09/09 03:50:59;;;;;;;13.32;8.10;;;;;;;;;;5032380;28;20076;-73
2023/09/09 03:53:44;;;;;;;11.48;8.95;;;;;;;;;;5032708;28;20072;-72
2023/09/09 03:56:29;;;;;;;13.38;8.05;;;;;;;;;;5043209;28;20087;-73
2023/09/09 03:59:14;;;;;;;9.93;7.22;;;;;;;;;;5038448;28;20033;-73
2023/09/09 04:02:00;;;;;;;11.55;8.38;;;;;;;;;;5042823;28;20026;-72
2023/09/09 04:04:45;;;;;;;10.52;7.95;;;;;;;;;;5026233;28;20409;-73
2023/09/09 04:07:35;;;;;;;11.52;8.10;;;;;;;;;;5002798;28;20037;-73
2023/09/09 04:10:20;;;;;;;10.23;6.72;;;;;;;;;;5011874;28;20041;-74
2023/09/09 04:13:05;;;;;;;11.57;7.88;;;;;;;;;;5016235;28;20029;-68
2023/09/09 04:15:54;;;;;;;11.20;7.38;;;;;;;;;;5015426;28;20281;-69
2023/09/09 04:18:40;;;;;;;12.65;8.18;;;;;;;;;;5042630;28;20037;-67
2023/09/09 04:21:25;;;;;;;13.70;8.10;;;;;;;;;;5028517;28;20068;-69
2023/09/09 04:24:10;;;;;;;10.90;6.72;;;;;;;;;;5036750;28;20025;-68
2023/09/09 04:26:55;;;;;;;9.48;7.10;;;;;;;;;;5042727;28;20034;-72
2023/09/09 04:29:41;;;;;;;10.40;6.93;;;;;;;;;;5034760;28;20030;-72
2023/09/09 04:32:26;;;;;;;9.95;7.00;;;;;;;;;;5042503;28;20052;-72
2023/09/09 04:35:11;;;;;;;9.43;7.18;;;;;;;;;;5032243;28;20021;-73
2023/09/09 04:37:56;;;;;;;15.77;7.72;;;;;;;;;;5042320;28;20029;-73
2023/09/09 04:40:42;;;;;;;11.65;7.85;;;;;;;;;;5032959;28;20048;-73
2023/09/09 04:43:27;;;;;;;11.10;7.38;;;;;;;;;;5041287;28;20495;-73
2023/09/09 04:46:12;;;;;;;11.27;8.18;;;;;;;;;;5006846;28;20037;-68
2023/09/09 04:48:57;;;;;;;11.23;7.32;;;;;;;;;;5003414;28;20091;-67
2023/09/09 04:51:43;;;;;;;10.23;8.02;;;;;;;;;;5014657;28;20033;-69
2023/09/09 04:54:28;;;;;;;12.15;8.07;;;;;;;;;;5019811;28;20404;-68
2023/09/09 04:57:14;;;;;;;12.43;8.40;;;;;;;;;;5013877;28;20469;-66
2023/09/09 04:59:59;;;;;;;10.60;8.18;;;;;;;;;;5013314;28;20104;-67
2023/09/09 05:02:44;;;;;;;9.77;7.25;;;;;;;;;;5028128;28;20438;-68
2023/09/09 05:05:29;;;;;;;12.23;8.25;;;;;;;;;;5033123;28;20113;-72
2023/09/09 05:08:15;;;;;;;10.77;7.60;;;;;;;;;;5013233;28;20135;-71
2023/09/09 05:11:00;;;;;;;10.55;7.70;;;;;;;;;;5002956;28;20029;-73
2023/09/09 05:13:45;;;;;;;11.32;7.95;;;;;;;;;;5013936;28;20071;-72
2023/09/09 05:16:30;;;;;;;11.35;8.18;;;;;;;;;;5013921;28;20393;-74
2023/09/09 05:19:15;;;;;;;10.38;6.97;;;;;;;;;;5041985;28;20029;-73
2023/09/09 05:22:01;;;;;;;12.15;7.53;;;;;;;;;;5032904;28;20562;-69
2023/09/09 05:24:46;;;;;;;10.43;7.22;;;;;;;;;;5009643;28;20143;-67
2023/09/09 05:27:31;;;;;;;12.63;8.27;;;;;;;;;;5027794;28;20025;-65
2023/09/09 05:30:16;;;;;;;11.65;7.93;;;;;;;;;;5028928;28;20064;-66
2023/09/09 05:33:02;;;;;;;12.27;9.05;;;;;;;;;;5036566;28;20104;-67
2023/09/09 05:35:50;;;;;;;12.25;8.45;;;;;;;;;;5012070;28;20418;-68
2023/09/09 05:38:36;;;;;;;13.57;7.97;;;;;;;;;;5041626;28;20025;-71
2023/09/09 05:41:21;;;;;;;14.05;8.45;;;;;;;;;;5006347;28;20033;-71
2023/09/09 05:44:06;;;;;;;12.63;8.38;;;;;;;;;;5040574;28;20029;-73
2023/09/09 05:46:51;;;;;;;13.95;8.75;;;;;;;;;;5014057;28;20037;-72
2023/09/09 05:49:36;;;;;;;13.65;8.18;;;;;;;;;;5013999;28;20034;-72
2023/09/09 05:52:22;;;;;;;11.68;8.63;;;;;;;;;;5013812;28;20576;-72
2023/09/09 05:55:08;;;;;;;10.85;8.82;;;;;;;;;;5014059;28;20044;-72
2023/09/09 05:57:53;;;;;;;10.25;7.95;;;;;;;;;;5013968;28;20025;-74
2023/09/09 06:00:39;;;;;;;10.73;7.65;;;;;;;;;;5031775;28;20026;-66
2023/09/09 06:03:24;;;;;;;14.50;7.93;;;;;;;;;;5041254;28;20495;-67
2023/09/09 06:06:09;;;;;;;12.82;8.20;;;;;;;;;;5007689;28;20037;-67
2023/09/09 06:08:54;;;;;;;11.20;7.63;;;;;;;;;;5040539;28;20411;-70
2023/09/09 06:11:39;;;;;;;10.70;7.95;;;;;;;;;;5007154;28;20038;-66
2023/09/09 06:14:25;;;;;;;12.57;8.35;;;;;;;;;;5012641;28;20419;-66
2023/09/09 06:17:10;;;;;;;11.70;8.23;;;;;;;;;;5041623;28;20033;-74
2023/09/09 06:19:56;;;;;;;16.52;9.18;;;;;;;;;;5043183;28;20021;-71
2023/09/09 06:22:41;;;;;;;11.93;9.07;;;;;;;;;;5000011;28;20033;-70
2023/09/09 06:25:26;;;;;;;12.85;8.18;;;;;;;;;;5039863;28;20030;-71
2023/09/09 06:28:11;;;;;;;14.35;8.65;;;;;;;;;;5038413;28;20052;-70
2023/09/09 06:30:56;;;;;;;13.68;8.25;;;;;;;;;;5039458;28;20040;-73
2023/09/09 06:33:42;;;;;;;13.27;8.15;;;;;;;;;;5041846;28;20037;-71
2023/09/09 06:36:27;;;;;;;10.35;8.10;;;;;;;;;;5016886;28;20030;-72
2023/09/09 06:39:12;;;;;;;12.85;7.80;;;;;;;;;;5023134;28;20400;-73
2023/09/09 06:41:57;;;;;;;11.38;7.95;;;;;;;;;;5016775;28;20060;-72
2023/09/09 06:44:42;;;;;;;11.48;8.35;;;;;;;;;;5028817;28;20033;-73
2023/09/09 06:47:28;;;;;;;10.95;7.43;;;;;;;;;;5025064;28;20350;-71
2023/09/09 06:50:13;;;;;;;12.98;8.45;;;;;;;;;;5028601;28;20068;-73
2023/09/09 06:52:58;;;;;;;10.90;7.80;;;;;;;;;;5019394;28;20033;-73
2023/09/09 06:55:44;;;;;;;12.85;7.63;;;;;;;;;;5005456;28;20196;-68
2023/09/09 06:58:29;;;;;;;11.95;7.20;;;;;;;;;;5043470;28;20034;-70
2023/09/09 07:01:14;;;;;;;11.32;7.28;;;;;;;;;;5037760;28;20365;-71
2023/09/09 07:04:00;;;;;;;10.45;6.32;;;;;;;;;;5042555;28;20033;-70
2023/09/09 07:06:45;;;;;;;9.90;6.82;;;;;;;;;;5016906;28;20091;-71
2023/09/09 07:09:30;;;;;;;11.77;7.45;;;;;;;;;;5043326;28;20038;-73
2023/09/09 07:12:15;;;;;;;10.80;7.68;;;;;;;;;;5016278;28;20496;-68
2023/09/09 07:15:00;;;;;;;10.52;6.38;;;;;;;;;;5015579;28;20029;-73
2023/09/09 07:17:49;;;;;;;10.57;7.07;;;;;;;;;;5016291;28;20033;-72
2023/09/09 07:20:34;;;;;;;13.77;8.00;;;;;;;;;;5037856;28;20499;-72
2023/09/09 07:23:19;;;;;;;13.30;7.10;;;;;;;;;;5010241;28;20280;-71
2023/09/09 07:26:04;;;;;;;9.13;7.05;;;;;;;;;;5012299;28;20095;-71
2023/09/09 07:28:50;;;;;;;11.20;7.72;;;;;;;;;;5043700;28;20064;-72
2023/09/09 07:31:35;;;;;;;9.35;6.45;;;;;;;;;;5031664;28;20112;-71
2023/09/09 07:34:20;;;;;;;11.30;6.72;;;;;;;;;;5039357;28;20040;-69
2023/09/09 07:37:05;;;;;;;10.00;5.72;;;;;;;;;;5005177;28;20303;-67
2023/09/09 07:39:51;;;;;;;8.05;5.95;;;;;;;;;;5015005;28;20121;-68
2023/09/09 07:42:36;;;;;;;10.55;6.15;;;;;;;;;;5015542;28;20534;-67
2023/09/09 07:45:22;;;;;;;7.53;6.18;;;;;;;;;;5014904;28;20112;-68
2023/09/09 07:48:07;;;;;;;7.18;5.35;;;;;;;;;;5015583;28;20392;-68
2023/09/09 07:50:53;;;;;;;8.23;5.60;;;;;;;;;;5023812;28;20029;-71
2023/09/09 07:53:38;;;;;;;9.57;5.80;;;;;;;;;;5012832;28;20034;-69
2023/09/09 07:56:23;;;;;;;8.63;6.03;;;;;;;;;;5042976;28;20029;-72
2023/09/09 07:59:08;;;;;;;12.88;6.55;;;;;;;;;;5015893;28;20042;-72
2023/09/09 08:01:54;;;;;;;9.57;6.38;;;;;;;;;;5030725;28;20033;-71
2023/09/09 08:04:39;;;;;;;9.27;6.68;;;;;;;;;;5031610;28;20038;-70
2023/09/09 08:07:25;;;;;;;9.05;5.97;;;;;;;;;;5013168;28;20091;-69
2023/09/09 08:10:12;;;;;;;8.57;6.25;;;;;;;;;;5034920;28;20037;-70
2023/09/09 08:12:57;;;;;;;7.85;5.82;;;;;;;;;;5014619;28;20033;-71
2023/09/09 08:15:42;;;;;;;9.38;6.57;;;;;;;;;;5009096;28;20034;-68
2023/09/09 08:18:28;;;;;;;7.82;5.40;;;;;;;;;;5024780;28;20424;-69
2023/09/09 08:21:13;;;;;;;10.85;5.90;;;;;;;;;;5013911;28;20029;-69
2023/09/09 08:23:59;;;;;;;7.45;5.68;;;;;;;;;;5032063;28;20021;-69
2023/09/09 08:26:44;;;;;;;9.95;6.03;;;;;;;;;;5014668;28;20033;-69
2023/09/09 08:29:29;;;;;;;9.75;5.97;;;;;;;;;;5014105;28;20029;-69
2023/09/09 08:32:14;;;;;;;9.98;6.07;;;;;;;;;;5012858;28;20392;-70
2023/09/09 08:35:00;;;;;;;9.25;6.70;;;;;;;;;;5013503;28;20075;-69
2023/09/09 08:37:45;;;;;;;10.68;6.07;;;;;;;;;;5013167;28;20029;-70
2023/09/09 08:40:34;;;;;;;10.02;6.90;;;;;;;;;;5013528;28;20041;-70
2023/09/09 08:43:19;;;;;;;;;;;;;;;;;;5014708;28;20090;-69
2023/09/09 08:46:13;;;;;;;10.27;7.35;;;;;;;;;;5013211;28;19921;-67
2023/09/09 08:48:59;;;;;;;12.93;6.07;;;;;;;;;;5006967;28;20045;-65
2023/09/09 08:51:56;;;;;;;9.30;6.28;;;;;;;;;;5013485;28;20041;-67
2023/09/09 08:54:41;;;;;;;13.00;7.22;;;;;;;;;;5016027;28;20115;-66
2023/09/09 08:57:28;;;;;;;7.82;5.90;;;;;;;;;;5013980;28;20035;-65
2023/09/09 09:00:14;;;;;;;10.65;6.03;;;;;;;;;;5010130;28;20029;-66
2023/09/09 09:03:01;;;;;;;8.82;6.07;;;;;;;;;;5024505;28;20041;-69
2023/09/09 09:05:46;;;;;;;8.98;6.78;;;;;;;;;;5011281;28;20030;-68
2023/09/09 09:08:33;;;;;;;11.52;7.00;;;;;;;;;;4999810;28;20063;-69
2023/09/09 09:11:19;;;;;;;10.27;7.32;;;;;;;;;;5038639;28;20087;-68
2023/09/09 09:14:08;;;;;;;9.60;6.18;;;;;;;;;;5014669;28;20607;-67
2023/09/09 09:16:53;;;;;;;11.10;7.22;;;;;;;;;;5017585;28;20030;-68
2023/09/09 09:19:39;;;;;;;8.93;6.22;;;;;;;;;;5012761;28;20485;-69
2023/09/09 09:22:24;;;;;;;12.10;6.28;;;;;;;;;;5019570;28;20389;-72
2023/09/09 09:25:11;;;;;;;8.80;6.43;;;;;;;;;;5012735;28;20227;-71
2023/09/09 09:27:57;;;;;;;10.20;6.60;;;;;;;;;;5012265;28;20443;-71
2023/09/09 09:30:42;;;;;;;9.20;5.68;;;;;;;;;;5024656;28;20022;-71
2023/09/09 09:33:30;;;;;;;9.68;6.00;;;;;;;;;;5011719;28;20038;-71
2023/09/09 09:36:16;;;;;;;9.70;6.32;;;;;;;;;;5009965;28;20035;-69
2023/09/09 09:39:07;;;;;;;9.18;6.72;;;;;;;;;;5014365;28;20065;-71
2023/09/09 09:41:52;;;;;;;9.40;6.47;;;;;;;;;;5013698;28;20079;-72
2023/09/09 09:44:37;;;;;;;9.23;6.88;;;;;;;;;;5041919;28;20368;-72
2023/09/09 09:47:23;;;;;;;9.73;6.63;;;;;;;;;;5030525;28;20030;-71
2023/09/09 09:50:15;;;;;;;8.80;6.43;;;;;;;;;;5019570;28;20021;-71
2023/09/09 09:53:01;;;;;;;16.73;7.15;;;;;;;;;;5038059;28;20389;-70
2023/09/09 09:55:50;;;;;;;11.00;7.10;;;;;;;;;;5006747;28;20056;-71
2023/09/09 09:58:35;;;;;;;;;;;;;;;;;;5045903;28;20033;-66
2023/09/09 10:01:20;;;;;;;8.20;6.05;;;;;;;;;;5017331;28;19913;-71
2023/09/09 10:04:07;;;;;;;10.25;6.40;;;;;;;;;;5000927;28;20034;-71
2023/09/09 10:06:55;;;;;;;8.05;5.43;;;;;;;;;;5017376;28;20492;-71
2023/09/09 10:09:58;;;;;;;7.25;5.68;;;;;;;;;;5017851;28;20037;-72
2023/09/09 10:12:51;;;;;;;9.13;6.75;;;;;;;;;;5029311;28;20110;-71
2023/09/09 10:15:36;;;;;;;9.48;6.68;;;;;;;;;;5017081;28;20042;-65
2023/09/09 10:18:22;;;;;;;8.27;6.32;;;;;;;;;;5006376;28;20529;-71
2023/09/09 10:21:09;;;;;;;9.13;6.75;;;;;;;;;;5017422;28;20053;-67
2023/09/09 10:23:56;;;;;;;11.27;7.28;;;;;;;;;;5017022;28;20029;-66
2023/09/09 10:26:41;;;;;;;8.65;6.25;;;;;;;;;;5004875;28;20044;-67
2023/09/09 10:29:27;;;;;;;11.85;6.40;;;;;;;;;;5017739;28;20048;-65
2023/09/09 10:32:14;;;;;;;8.35;6.20;;;;;;;;;;5026910;28;20033;-67
2023/09/09 10:35:02;;;;;;;9.43;6.38;;;;;;;;;;5035442;28;20109;-69
2023/09/09 10:37:50;;;;;;;8.85;5.97;;;;;;;;;;5044946;28;20120;-70
2023/09/09 10:40:35;;;;;;;8.05;5.53;;;;;;;;;;5044400;28;20381;-71
2023/09/09 10:43:20;;;;;;;6.72;5.40;;;;;;;;;;5018976;28;20029;-70
2023/09/09 10:46:07;;;;;;;8.95;5.60;;;;;;;;;;5016060;28;20041;-69
2023/09/09 10:48:52;;;;;;;8.88;5.53;;;;;;;;;;5001091;28;20559;-70
2023/09/09 10:51:49;;;;;;;9.52;5.43;;;;;;;;;;5016903;28;20029;-70
2023/09/09 10:54:35;;;;;;;8.52;6.18;;;;;;;;;;5018925;28;20424;-71
2023/09/09 10:57:32;;;;;;;8.93;5.20;;;;;;;;;;5016863;28;20033;-75
2023/09/09 11:00:35;;;;;;;8.88;5.95;;;;;;;;;;5044345;28;20021;-73
2023/09/09 11:03:25;;;;;;;13.57;6.30;;;;;;;;;;5036889;28;20034;-73
2023/09/09 11:06:19;;;;;;;9.73;6.40;;;;;;;;;;5024066;28;20177;-72
2023/09/09 11:09:10;;;;;;;11.48;6.50;;;;;;;;;;5040836;28;20095;-72
2023/09/09 11:11:56;;;;;;;8.52;6.22;;;;;;;;;;5037859;28;20099;-73
2023/09/09 11:14:47;;;;;;;11.75;5.38;;;;;;;;;;5003020;28;20040;-69
2023/09/09 11:17:34;;;;;;;8.45;5.55;;;;;;;;;;5015138;28;20353;-68
2023/09/09 11:20:20;;;;;;;10.13;5.78;;;;;;;;;;5023322;28;20040;-68
2023/09/09 11:23:06;;;;;;;9.15;4.97;;;;;;;;;;5035377;28;20114;-69
2023/09/09 11:25:52;;;;;;;10.45;6.00;;;;;;;;;;5016341;28;20056;-69
2023/09/09 11:28:37;;;;;;;9.60;6.07;;;;;;;;;;5021852;28;20492;-69
2023/09/09 11:31:24;;;;;;;13.85;6.18;;;;;;;;;;5043381;28;20036;-69
2023/09/09 11:34:09;;;;;;;9.50;5.28;;;;;;;;;;5010114;28;20034;-69
2023/09/09 11:36:55;;;;;;;7.63;4.70;;;;;;;;;;5003620;28;20120;-66
2023/09/09 11:39:40;;;;;;;10.45;5.47;;;;;;;;;;5016072;28;20036;-64
2023/09/09 11:42:25;;;;;;;10.48;5.70;;;;;;;;;;5039899;28;20476;-65
2023/09/09 11:45:17;;;;;;;8.23;4.70;;;;;;;;;;5016113;28;20029;-65
2023/09/09 11:48:03;;;;;;;8.68;4.53;;;;;;;;;;5004757;28;20469;-67
2023/09/09 11:50:49;;;;;;;12.65;5.22;;;;;;;;;;5033423;28;20160;-66
2023/09/09 11:53:34;;;;;;;10.48;4.63;;;;;;;;;;5017698;28;20044;-67
2023/09/09 11:56:20;;;;;;;11.05;4.30;;;;;;;;;;5015996;28;20120;-65
2023/09/09 11:59:06;;;;;;;13.50;5.15;;;;;;;;;;5015894;28;20087;-66
2023/09/09 12:01:51;;;;;;;11.20;5.13;;;;;;;;;;5042203;28;20060;-66
2023/09/09 12:04:37;;;;;;;10.63;4.78;;;;;;;;;;5004346;28;20057;-68
2023/09/09 12:07:24;;;;;;;13.80;5.95;;;;;;;;;;5015641;28;20358;-66
2023/09/09 12:10:14;;;;;;;14.98;5.07;;;;;;;;;;5015487;28;20112;-67
2023/09/09 12:12:59;;;;;;;8.77;4.22;;;;;;;;;;5014750;28;20025;-66
2023/09/09 12:15:45;;;;;;;10.93;5.43;;;;;;;;;;5038089;28;20040;-68
2023/09/09 12:18:30;;;;;;;12.07;5.78;;;;;;;;;;5014391;28;20041;-67
2023/09/09 12:21:15;;;;;;;11.63;4.70;;;;;;;;;;5042273;28;20488;-67
2023/09/09 12:24:01;;;;;;;13.80;4.85;;;;;;;;;;5015196;28;20087;-67
2023/09/09 12:26:52;;;;;;;11.60;5.28;;;;;;;;;;5001748;28;20111;-69
2023/09/09 12:29:45;;;;;;;8.35;4.03;;;;;;;;;;5001569;28;20029;-72
2023/09/09 12:32:30;;;;;;;14.55;5.53;;;;;;;;;;5013503;28;20396;-71
2023/09/09 12:35:15;;;;;;;10.40;4.63;;;;;;;;;;5012952;28;20025;-71
2023/09/09 12:38:01;;;;;;;7.00;4.10;;;;;;;;;;5011011;28;20530;-71
2023/09/09 12:40:47;;;;;;;11.63;4.78;;;;;;;;;;5042368;28;20566;-72
2023/09/09 12:43:33;;;;;;;12.70;4.47;;;;;;;;;;5035451;28;20043;-66
2023/09/09 12:46:18;;;;;;;9.63;4.22;;;;;;;;;;5038695;28;20083;-71
2023/09/09 12:49:05;;;;;;;14.07;4.68;;;;;;;;;;5029980;28;20444;-71
2023/09/09 12:51:50;;;;;;;13.07;5.50;;;;;;;;;;5014732;28;20064;-71
2023/09/09 12:54:35;;;;;;;14.00;4.93;;;;;;;;;;5016987;28;20038;-72
2023/09/09 12:57:20;;;;;;;14.90;5.53;;;;;;;;;;5002392;28;20120;-73
2023/09/09 13:00:06;;;;;;;10.75;4.80;;;;;;;;;;5014247;28;20033;-73
2023/09/09 13:02:52;;;;;;;16.67;4.60;;;;;;;;;;5018104;28;20048;-70
2023/09/09 13:05:37;;;;;;;11.85;4.80;;;;;;;;;;5000471;28;20031;-67
2023/09/09 13:08:22;;;;;;;13.02;4.80;;;;;;;;;;5041977;28;20034;-69
2023/09/09 13:11:07;;;;;;;16.00;5.35;;;;;;;;;;5038582;28;20029;-66
2023/09/09 13:13:53;;;;;;;10.50;5.07;;;;;;;;;;5007190;28;20117;-67
2023/09/09 13:16:40;;;;;;;9.05;4.72;;;;;;;;;;4989133;28;20083;-69
2023/09/09 13:19:25;;;;;;;15.27;4.45;;;;;;;;;;5030920;28;20032;-67
2023/09/09 13:22:11;;;;;;;8.30;4.22;;;;;;;;;;5041272;28;20050;-66
2023/09/09 13:24:56;;;;;;;9.40;4.20;;;;;;;;;;5004905;28;20392;-65
2023/09/09 13:27:41;;;;;;;6.93;4.72;;;;;;;;;;5013514;28;20036;-66
2023/09/09 13:30:26;;;;;;;13.35;5.10;;;;;;;;;;5041912;28;20029;-67
2023/09/09 13:33:12;;;;;;;11.55;4.45;;;;;;;;;;5040596;28;20446;-68
2023/09/09 13:35:57;;;;;;;10.88;4.80;;;;;;;;;;5014422;28;20029;-66
2023/09/09 13:38:42;;;;;;;12.13;5.00;;;;;;;;;;5014340;28;20057;-69
2023/09/09 13:41:28;;;;;;;9.30;5.38;;;;;;;;;;5041521;28;20092;-72
2023/09/09 13:44:14;;;;;;;9.93;5.55;;;;;;;;;;5021262;28;20037;-72
2023/09/09 13:46:59;;;;;;;13.63;5.90;;;;;;;;;;4986222;28;20088;-72
2023/09/09 13:49:44;;;;;;;17.65;7.10;;;;;;;;;;5021842;28;20113;-71
2023/09/09 13:52:30;;;;;;;12.10;5.60;;;;;;;;;;5016260;28;20067;-72
2023/09/09 13:55:15;;;;;;;12.20;6.13;;;;;;;;;;5008569;28;20025;-74
2023/09/09 13:58:01;;;;;;;8.82;5.55;;;;;;;;;;5007614;28;20076;-68
2023/09/09 14:00:47;;;;;;;12.50;6.05;;;;;;;;;;5001757;28;20108;-71
2023/09/09 14:03:33;;;;;;;9.45;5.78;;;;;;;;;;5026690;28;20487;-72
2023/09/09 14:06:18;;;;;;;10.80;5.05;;;;;;;;;;4991676;28;20033;-71
2023/09/09 14:09:03;;;;;;;11.77;6.03;;;;;;;;;;5002324;28;20412;-71
2023/09/09 14:11:48;;;;;;;15.60;5.75;;;;;;;;;;5037131;28;20037;-71
2023/09/09 14:14:34;;;;;;;10.82;4.75;;;;;;;;;;4999242;28;20044;-73
2023/09/09 14:17:19;;;;;;;13.48;5.65;;;;;;;;;;5013636;28;20060;-66
2023/09/09 14:20:04;;;;;;;12.25;5.85;;;;;;;;;;5033658;28;20144;-69
2023/09/09 14:22:50;;;;;;;13.43;5.32;;;;;;;;;;5013107;28;20516;-66
2023/09/09 14:25:39;;;;;;;12.18;6.32;;;;;;;;;;5009968;28;20112;-66
2023/09/09 14:28:24;;;;;;;11.23;6.00;;;;;;;;;;5008143;28;20037;-66
2023/09/09 14:31:10;;;;;;;8.35;5.32;;;;;;;;;;5010949;28;20068;-67
2023/09/09 14:33:55;;;;;;;11.82;5.85;;;;;;;;;;5023503;28;20148;-75
2023/09/09 14:36:40;;;;;;;11.02;5.50;;;;;;;;;;5013481;28;20369;-72
2023/09/09 14:39:27;;;;;;;11.00;5.47;;;;;;;;;;5043034;28;20044;-73
2023/09/09 14:42:13;;;;;;;13.98;5.72;;;;;;;;;;5044391;28;20558;-72
2023/09/09 14:44:58;;;;;;;10.95;6.50;;;;;;;;;;5024347;28;20029;-72
2023/09/09 14:47:43;;;;;;;11.80;5.72;;;;;;;;;;5044743;28;20037;-72
2023/09/09 14:50:29;;;;;;;14.98;6.20;;;;;;;;;;5032565;28;20574;-72
2023/09/09 14:53:14;;;;;;;10.35;5.18;;;;;;;;;;5029077;28;20033;-69
2023/09/09 14:55:59;;;;;;;14.02;5.95;;;;;;;;;;5044363;28;20033;-68
2023/09/09 14:58:44;;;;;;;9.15;5.15;;;;;;;;;;5030285;28;20021;-72
2023/09/09 15:01:29;;;;;;;8.60;5.00;;;;;;;;;;5016948;28;20151;-70
2023/09/09 15:04:15;;;;;;;15.75;4.65;;;;;;;;;;5013513;28;20116;-70
2023/09/09 15:07:00;;;;;;;11.43;5.15;;;;;;;;;;5016493;28;20112;-68
2023/09/09 15:09:45;;;;;;;12.70;4.50;;;;;;;;;;5044001;28;20410;-70
2023/09/09 15:12:30;;;;;;;9.35;4.85;;;;;;;;;;5033363;28;20046;-66
2023/09/09 15:15:15;;;;;;;11.57;5.28;;;;;;;;;;5030463;28;20067;-69
2023/09/09 15:18:02;;;;;;;10.68;4.85;;;;;;;;;;5030358;28;20029;-70
2023/09/09 15:20:47;;;;;;;13.85;5.82;;;;;;;;;;5034538;28;20243;-71
2023/09/09 15:23:32;;;;;;;10.73;5.28;;;;;;;;;;5016094;28;20428;-72
2023/09/09 15:26:17;;;;;;;9.35;4.57;;;;;;;;;;5039125;28;20021;-72
2023/09/09 15:29:03;;;;;;;8.73;5.45;;;;;;;;;;5044171;28;20037;-69
2023/09/09 15:31:48;;;;;;;11.07;4.60;;;;;;;;;;5044067;28;20040;-66
2023/09/09 15:34:33;;;;;;;11.70;5.40;;;;;;;;;;5023321;28;20025;-68
2023/09/09 15:37:18;;;;;;;8.43;5.07;;;;;;;;;;5016327;28;20026;-65
2023/09/09 15:40:04;;;;;;;13.57;5.97;;;;;;;;;;5015785;28;20021;-67
2023/09/09 15:42:49;;;;;;;14.95;5.43;;;;;;;;;;5015018;28;20033;-67
2023/09/09 15:45:35;;;;;;;12.00;6.07;;;;;;;;;;5016196;28;20074;-66
2023/09/09 15:48:20;;;;;;;8.60;5.63;;;;;;;;;;5043504;28;20017;-71
2023/09/09 15:51:05;;;;;;;11.55;4.93;;;;;;;;;;5014581;28;20519;-68
2023/09/09 15:53:50;;;;;;;10.30;5.50;;;;;;;;;;5032848;28;20069;-67
2023/09/09 15:56:36;;;;;;;9.52;5.38;;;;;;;;;;5029647;28;20037;-68
2023/09/09 15:59:21;;;;;;;11.93;5.60;;;;;;;;;;5043539;28;20029;-69
2023/09/09 16:02:06;;;;;;;10.38;6.22;;;;;;;;;;5040186;28;20037;-70
2023/09/09 16:04:53;;;;;;;12.77;5.65;;;;;;;;;;5038483;28;20138;-67
2023/09/09 16:07:38;;;;;;;8.40;5.63;;;;;;;;;;5015490;28;20688;-71
2023/09/09 16:10:24;;;;;;;15.55;5.75;;;;;;;;;;5015156;28;20388;-69
2023/09/09 16:13:09;;;;;;;8.05;4.70;;;;;;;;;;5023635;28;20040;-69
2023/09/09 16:15:58;;;;;;;15.80;5.25;;;;;;;;;;5015374;28;20484;-73
2023/09/09 16:18:43;;;;;;;16.33;5.75;;;;;;;;;;5043028;28;20071;-68
2023/09/09 16:21:28;;;;;;;10.90;5.53;;;;;;;;;;5033926;28;20067;-70
2023/09/09 16:24:14;;;;;;;10.38;5.25;;;;;;;;;;5014627;28;20116;-72